createdAt,value
2022-09-23T00:02:18.709Z,1.70
2022-09-23T00:04:47.126Z,1.67
2022-09-23T00:07:17.173Z,1.70
2022-09-23T00:09:45.446Z,1.80
2022-09-23T00:12:13.836Z,1.63
2022-09-23T00:14:42.083Z,1.60
2022-09-23T00:17:10.940Z,1.50
2022-09-23T00:19:40.338Z,1.70
2022-09-23T00:22:08.873Z,1.70
2022-09-23T00:24:39.812Z,1.60
2022-09-23T00:27:08.173Z,1.70
2022-09-23T00:29:37.003Z,1.67
2022-09-23T00:32:06.264Z,1.97
2022-09-23T00:34:35.075Z,1.73
2022-09-23T00:37:03.408Z,2.20
2022-09-23T00:39:32.283Z,1.80
2022-09-23T00:42:02.411Z,1.43
2022-09-23T00:44:46.993Z,1.60
2022-09-23T00:47:21.518Z,1.93
2022-09-23T00:50:02.032Z,1.40
2022-09-23T00:52:32.893Z,1.70
2022-09-23T00:55:05.857Z,1.47
2022-09-23T00:57:38.589Z,1.80
2022-09-23T01:00:14.666Z,1.57
2022-09-23T01:02:43.022Z,1.43
2022-09-23T01:05:11.535Z,1.60
2022-09-23T01:07:39.905Z,1.67
2022-09-23T01:10:10.317Z,1.73
2022-09-23T01:12:57.180Z,1.50
2022-09-23T01:15:34.046Z,1.30
2022-09-23T01:18:09.919Z,1.47
2022-09-23T01:20:59.419Z,1.40
2022-09-23T01:24:02.427Z,1.50
2022-09-23T01:26:51.140Z,1.40
2022-09-23T01:29:49.682Z,1.47
2022-09-23T01:32:27.355Z,1.20
2022-09-23T01:44:25.351Z,1.80
2022-09-23T01:46:56.644Z,1.50
2022-09-23T01:49:31.910Z,1.70
2022-09-23T01:52:05.405Z,1.43
2022-09-23T01:54:39.690Z,1.53
2022-09-23T01:57:32.590Z,1.50
2022-09-23T02:00:20.683Z,1.50
2022-09-23T02:03:13.591Z,1.33
2022-09-23T02:06:05.426Z,1.30
2022-09-23T02:08:38.513Z,1.50
2022-09-23T02:11:10.013Z,1.50
2022-09-23T02:13:46.429Z,1.40
2022-09-23T02:16:22.575Z,1.20
2022-09-23T02:18:55.273Z,1.33
2022-09-23T02:21:28.660Z,1.60
2022-09-23T02:24:03.863Z,1.73
2022-09-23T02:26:35.621Z,1.30
2022-09-23T02:29:12.687Z,1.43
2022-09-23T02:31:46.546Z,1.37
2022-09-23T02:34:23.199Z,1.50
2022-09-23T02:37:06.588Z,1.30
2022-09-23T02:39:43.077Z,1.80
2022-09-23T02:42:17.664Z,1.60
2022-09-23T02:44:46.017Z,0.90
2022-09-23T02:47:14.477Z,1.50
2022-09-23T02:49:42.882Z,1.13
2022-09-23T02:52:13.759Z,1.10
2022-09-23T02:54:42.342Z,1.43
2022-09-23T02:57:11.371Z,1.23
2022-09-23T02:59:40.023Z,1.53
2022-09-23T03:02:44.094Z,0.93
2022-09-23T03:05:19.437Z,1.30
2022-09-23T03:08:00.935Z,1.20
2022-09-23T03:10:36.925Z,1.90
2022-09-23T03:13:16.643Z,1.40
2022-09-23T03:15:53.401Z,1.10
2022-09-23T03:18:32.424Z,1.33
2022-09-23T03:21:07.646Z,1.20
2022-09-23T03:23:40.961Z,1.17
2022-09-23T03:26:13.423Z,1.10
2022-09-23T03:28:44.981Z,1.00
2022-09-23T03:31:14.274Z,1.30
2022-09-23T03:33:46.582Z,1.57
2022-09-23T03:36:36.528Z,1.47
2022-09-23T03:39:14.134Z,1.50
2022-09-23T03:41:50.844Z,1.30
2022-09-23T03:44:19.586Z,1.17
2022-09-23T03:46:50.628Z,1.00
2022-09-23T03:49:27.255Z,1.47
2022-09-23T03:51:56.075Z,1.60
2022-09-23T03:54:26.842Z,1.30
2022-09-23T03:56:57.781Z,1.10
2022-09-23T03:59:26.691Z,1.30
2022-09-23T04:01:55.617Z,1.27
2022-09-23T04:04:25.755Z,1.27
2022-09-23T04:06:56.854Z,1.17
2022-09-23T04:09:26.592Z,1.30
2022-09-23T04:11:55.405Z,1.43
2022-09-23T04:14:24.541Z,1.30
2022-09-23T04:16:53.032Z,1.50
2022-09-23T04:19:21.460Z,1.10
2022-09-23T04:21:50.109Z,1.20
2022-09-23T04:24:18.698Z,1.40
2022-09-23T04:26:52.366Z,1.30
2022-09-23T04:29:21.314Z,1.40
2022-09-23T04:31:50.054Z,1.50
2022-09-23T04:34:20.404Z,1.33
2022-09-23T04:36:50.623Z,0.90
2022-09-23T04:39:19.337Z,1.03
2022-09-23T04:41:50.390Z,1.10
2022-09-23T04:44:18.906Z,1.00
2022-09-23T04:46:48.206Z,1.40
2022-09-23T04:49:17.211Z,1.20
2022-09-23T04:51:45.772Z,1.20
2022-09-23T04:54:15.407Z,1.30
2022-09-23T04:56:43.787Z,1.60
2022-09-23T04:59:13.551Z,1.00
2022-09-23T05:01:42.234Z,1.60
2022-09-23T05:04:13.971Z,1.57
2022-09-23T05:06:44.043Z,1.20
2022-09-23T05:09:17.726Z,1.30
2022-09-23T05:11:46.647Z,0.80
2022-09-23T05:14:16.428Z,1.23
2022-09-23T05:16:44.840Z,1.27
2022-09-23T05:19:13.623Z,1.90
2022-09-23T05:21:44.609Z,1.30
2022-09-23T05:24:13.906Z,1.03
2022-09-23T05:26:42.701Z,1.17
2022-09-23T05:29:11.432Z,1.30
2022-09-23T05:31:41.348Z,1.37
2022-09-23T05:34:09.951Z,1.33
2022-09-23T05:36:39.295Z,1.20
2022-09-23T05:39:08.647Z,1.20
2022-09-23T05:41:38.424Z,1.30
2022-09-23T05:44:08.326Z,1.50
2022-09-23T05:46:36.906Z,1.53
2022-09-23T05:49:10.700Z,1.40
2022-09-23T05:51:39.326Z,1.10
2022-09-23T05:54:08.434Z,0.93
2022-09-23T05:56:38.179Z,1.27
2022-09-23T05:59:07.755Z,1.30
2022-09-23T06:01:38.648Z,0.90
2022-09-23T06:04:09.267Z,1.40
2022-09-23T06:06:40.491Z,1.03
2022-09-23T06:09:11.502Z,1.17
2022-09-23T06:11:40.199Z,1.10
2022-09-23T06:14:09.694Z,1.40
2022-09-23T06:16:38.141Z,1.10
2022-09-23T06:19:08.081Z,1.40
2022-09-23T06:21:38.730Z,1.10
2022-09-23T06:24:08.638Z,1.10
2022-09-23T06:26:38.359Z,1.33
2022-09-23T06:29:11.752Z,1.10
2022-09-23T06:31:42.159Z,1.10
2022-09-23T06:34:14.839Z,1.50
2022-09-23T06:36:45.887Z,1.37
2022-09-23T06:39:15.735Z,1.20
2022-09-23T06:41:44.795Z,1.23
2022-09-23T06:44:15.829Z,1.07
2022-09-23T06:46:44.466Z,1.30
2022-09-23T06:49:15.237Z,1.20
2022-09-23T06:51:43.633Z,1.23
2022-09-23T06:54:12.125Z,1.20
2022-09-23T06:56:40.632Z,1.03
2022-09-23T06:59:10.703Z,1.30
2022-09-23T07:01:39.143Z,1.43
2022-09-23T07:04:08.202Z,1.20
2022-09-23T07:06:38.176Z,1.30
2022-09-23T07:09:07.970Z,1.40
2022-09-23T07:11:37.214Z,1.43
2022-09-23T07:14:06.015Z,1.13
2022-09-23T07:16:34.553Z,1.17
2022-09-23T07:19:07.073Z,1.20
2022-09-23T07:21:37.806Z,1.33
2022-09-23T07:24:07.270Z,1.40
2022-09-23T07:26:35.983Z,1.00
2022-09-23T07:29:05.890Z,1.50
2022-09-23T07:31:39.719Z,1.20
2022-09-23T07:34:09.934Z,1.50
2022-09-23T07:36:41.392Z,1.30
2022-09-23T07:39:11.387Z,1.30
2022-09-23T07:41:41.907Z,1.00
2022-09-23T07:44:11.846Z,1.40
2022-09-23T07:46:41.450Z,1.13
2022-09-23T07:49:10.775Z,1.53
2022-09-23T07:51:43.194Z,1.10
2022-09-23T07:54:14.231Z,1.17
2022-09-23T07:56:44.317Z,1.20
2022-09-23T07:59:15.576Z,1.20
2022-09-23T08:01:48.327Z,1.50
2022-09-23T08:04:19.181Z,1.07
2022-09-23T08:06:50.663Z,1.07
2022-09-23T08:09:23.177Z,1.43
2022-09-23T08:11:52.880Z,1.47
2022-09-23T08:14:22.673Z,1.17
2022-09-23T08:17:16.659Z,1.10
2022-09-23T08:19:45.325Z,1.10
2022-09-23T08:22:16.368Z,1.20
2022-09-23T08:24:46.699Z,1.60
2022-09-23T08:27:15.098Z,1.57
2022-09-23T08:29:43.775Z,1.00
2022-09-23T08:32:12.591Z,1.07
2022-09-23T08:34:41.191Z,1.03
2022-09-23T08:37:12.225Z,1.00
2022-09-23T08:39:41.970Z,1.17
2022-09-23T08:42:18.504Z,1.20
2022-09-23T08:44:50.937Z,1.20
2022-09-23T08:47:24.732Z,1.73
2022-09-23T08:50:01.264Z,1.30
2022-09-23T08:52:35.898Z,1.13
2022-09-23T08:55:07.515Z,1.10
2022-09-23T08:58:23.809Z,1.27
2022-09-23T09:00:56.971Z,1.30
2022-09-23T09:03:29.799Z,1.13
2022-09-23T09:05:59.528Z,1.27
2022-09-23T09:08:33.917Z,1.27
2022-09-23T09:11:05.367Z,1.70
2022-09-23T09:13:36.914Z,1.27
2022-09-23T09:16:48.326Z,1.37
2022-09-23T09:19:22.124Z,1.23
2022-09-23T09:21:56.270Z,1.43
2022-09-23T09:24:33.511Z,1.10
2022-09-23T09:27:13.111Z,1.03
2022-09-23T09:29:46.270Z,1.30
2022-09-23T09:32:21.294Z,1.17
2022-09-23T09:34:55.649Z,1.10
2022-09-23T09:37:31.412Z,1.00
2022-09-23T09:40:02.336Z,1.50
2022-09-23T09:42:40.417Z,1.40
2022-09-23T09:45:19.932Z,1.47
2022-09-23T09:47:56.893Z,1.50
2022-09-23T09:50:44.839Z,1.27
2022-09-23T09:53:22.413Z,1.17
2022-09-23T09:56:04.641Z,1.77
2022-09-23T09:58:43.936Z,1.47
2022-09-23T10:01:21.033Z,0.97
2022-09-23T10:03:54.357Z,1.40
2022-09-23T10:06:27.226Z,1.37
2022-09-23T10:09:19.293Z,1.40
2022-09-23T10:12:15.519Z,1.30
2022-09-23T10:14:46.071Z,1.00
2022-09-23T10:17:20.587Z,1.07
2022-09-23T10:19:51.866Z,1.30
2022-09-23T10:22:26.649Z,1.40
2022-09-23T10:24:56.343Z,1.23
2022-09-23T10:27:31.519Z,1.00
2022-09-23T10:30:03.611Z,1.40
2022-09-23T10:32:36.498Z,1.17
2022-09-23T10:35:15.022Z,1.20
2022-09-23T10:37:46.841Z,1.33
2022-09-23T10:40:40.015Z,1.23
2022-09-23T10:43:41.970Z,1.23
2022-09-23T10:46:35.928Z,1.10
2022-09-23T10:49:52.601Z,1.20
2022-09-23T10:52:36.435Z,1.77
2022-09-23T10:55:15.584Z,1.37
2022-09-23T10:57:57.790Z,1.20
2022-09-23T11:00:37.927Z,1.07
2022-09-23T11:03:26.109Z,1.07
2022-09-23T11:06:06.555Z,1.43
2022-09-23T11:08:55.995Z,1.23
2022-09-23T11:11:35.630Z,1.40
2022-09-23T11:14:17.934Z,1.20
2022-09-23T11:17:05.829Z,1.30
2022-09-23T11:20:03.421Z,1.20
2022-09-23T11:22:53.286Z,0.83
2022-09-23T11:25:33.344Z,1.10
2022-09-23T11:28:33.374Z,1.13
2022-09-23T11:31:11.040Z,1.30
2022-09-23T11:33:54.076Z,0.90
2022-09-23T11:36:32.747Z,1.00
2022-09-23T11:39:07.950Z,0.87
2022-09-23T11:41:40.185Z,1.00
2022-09-23T11:44:16.101Z,1.20
2022-09-23T11:46:49.698Z,1.40
2022-09-23T11:49:22.517Z,1.10
2022-09-23T11:52:03.124Z,1.27
2022-09-23T11:54:36.019Z,1.57
2022-09-23T11:57:09.984Z,0.90
2022-09-23T11:59:43.741Z,1.43
2022-09-23T12:02:22.222Z,1.00
2022-09-23T12:05:02.799Z,1.20
2022-09-23T12:07:45.023Z,1.23
2022-09-23T12:10:14.087Z,1.00
2022-09-23T12:12:52.545Z,1.43
2022-09-23T12:15:35.598Z,1.30
2022-09-23T12:18:28.134Z,1.23
2022-09-23T12:21:45.773Z,1.20
2022-09-23T12:24:28.660Z,1.00
2022-09-23T12:27:01.219Z,1.00
2022-09-23T12:29:32.755Z,1.10
2022-09-23T12:32:02.857Z,1.20
2022-09-23T12:34:39.897Z,1.70
2022-09-23T12:37:08.570Z,1.37
2022-09-23T12:39:40.010Z,1.30
2022-09-23T12:42:17.333Z,1.17
2022-09-23T12:44:47.875Z,1.13
2022-09-23T12:47:41.168Z,1.20
2022-09-23T12:50:55.476Z,1.00
2022-09-23T12:53:58.498Z,1.20
2022-09-23T12:57:02.361Z,1.20
2022-09-23T12:59:33.933Z,1.60
2022-09-23T13:02:24.946Z,1.07
2022-09-23T13:05:17.725Z,1.10
2022-09-23T13:07:51.251Z,1.40
2022-09-23T13:10:26.436Z,1.50
2022-09-23T13:12:57.794Z,1.40
2022-09-23T13:15:31.025Z,1.67
2022-09-23T13:18:32.597Z,1.33
2022-09-23T13:21:01.314Z,1.10
2022-09-23T13:23:31.349Z,1.10
2022-09-23T13:26:03.102Z,1.27
2022-09-23T13:28:40.173Z,1.20
2022-09-23T13:31:16.128Z,1.10
2022-09-23T13:33:47.711Z,1.67
2022-09-23T13:36:18.364Z,1.30
2022-09-23T13:38:47.236Z,1.27
2022-09-23T13:41:19.084Z,1.50
2022-09-23T13:43:51.874Z,1.23
2022-09-23T13:46:23.097Z,1.30
2022-09-23T13:48:55.462Z,1.10
2022-09-23T13:51:27.096Z,1.20
2022-09-23T13:53:57.236Z,1.00
2022-09-23T13:56:28.089Z,1.23
2022-09-23T13:59:17.170Z,1.53
2022-09-23T14:01:47.230Z,1.33
2022-09-23T14:04:25.637Z,1.50
2022-09-23T14:06:54.582Z,1.50
2022-09-23T14:09:27.705Z,1.10
2022-09-23T14:11:57.826Z,1.30
2022-09-23T14:14:28.183Z,1.87
2022-09-23T14:16:57.477Z,1.50
2022-09-23T14:19:27.748Z,1.90
2022-09-23T14:21:57.271Z,1.27
2022-09-23T14:24:32.118Z,1.47
2022-09-23T14:27:16.281Z,1.77
2022-09-23T14:29:49.373Z,1.80
2022-09-23T14:32:23.673Z,1.30
2022-09-23T14:34:53.718Z,1.60
2022-09-23T14:37:44.251Z,1.40
2022-09-23T14:40:18.833Z,1.10
2022-09-23T14:42:51.507Z,1.23
2022-09-23T14:45:25.772Z,1.10
2022-09-23T14:47:59.690Z,1.67
2022-09-23T14:50:40.756Z,1.40
2022-09-23T14:53:36.716Z,1.33
2022-09-23T14:56:17.061Z,1.43
2022-09-23T14:58:52.563Z,1.30
2022-09-23T15:01:40.167Z,1.40
2022-09-23T15:04:31.016Z,1.40
2022-09-23T15:07:02.847Z,1.30
2022-09-23T15:09:34.602Z,1.40
2022-09-23T15:12:04.416Z,1.13
2022-09-23T15:14:39.409Z,1.13
2022-09-23T15:17:21.434Z,1.60
2022-09-23T15:19:56.846Z,1.87
2022-09-23T15:22:26.126Z,1.83
2022-09-23T15:24:56.829Z,1.53
2022-09-23T15:27:33.375Z,1.60
2022-09-23T15:30:17.518Z,1.33
2022-09-23T15:32:48.928Z,1.50
2022-09-23T15:35:21.156Z,1.43
2022-09-23T15:37:51.870Z,1.50
2022-09-23T15:40:23.821Z,1.00
2022-09-23T15:42:56.234Z,1.00
2022-09-23T15:45:36.559Z,1.37
2022-09-23T15:48:13.122Z,1.23
2022-09-23T15:50:42.522Z,1.40
2022-09-23T15:53:15.772Z,1.47
2022-09-23T15:55:45.432Z,1.40
2022-09-23T15:58:14.008Z,1.83
2022-09-23T16:00:42.593Z,1.20
2022-09-23T16:03:15.844Z,1.17
2022-09-23T16:05:46.727Z,1.40
2022-09-23T16:08:16.057Z,1.30
2022-09-23T16:10:44.851Z,1.33
2022-09-23T16:13:15.538Z,1.37
2022-09-23T16:15:44.829Z,1.50
2022-09-23T16:18:15.192Z,1.20
2022-09-23T16:20:45.796Z,1.53
2022-09-23T16:23:34.692Z,1.30
2022-09-23T16:26:09.421Z,1.50
2022-09-23T16:28:39.723Z,1.37
2022-09-23T16:31:09.505Z,1.40
2022-09-23T16:33:40.013Z,1.20
2022-09-23T16:36:15.163Z,1.47
2022-09-23T16:38:44.187Z,1.20
2022-09-23T16:41:12.716Z,1.23
2022-09-23T16:43:41.525Z,1.40
2022-09-23T16:46:12.296Z,1.40
2022-09-23T16:48:49.810Z,1.40
2022-09-23T16:51:23.063Z,1.50
2022-09-23T16:53:52.746Z,1.50
2022-09-23T16:56:28.193Z,1.17
2022-09-23T16:58:57.374Z,1.53
2022-09-23T17:01:48.015Z,1.30
2022-09-23T17:04:19.442Z,1.97
2022-09-23T17:06:50.213Z,2.67
2022-09-23T17:09:20.156Z,2.20
2022-09-23T17:11:53.653Z,2.10
2022-09-23T17:14:22.121Z,1.67
2022-09-23T17:16:50.683Z,1.80
2022-09-23T17:19:20.541Z,2.03
2022-09-23T17:21:48.989Z,2.13
2022-09-23T17:24:17.432Z,1.63
2022-09-23T17:26:50.692Z,2.00
2022-09-23T17:29:21.182Z,1.57
2022-09-23T17:31:49.812Z,1.50
2022-09-23T17:34:19.322Z,1.97
2022-09-23T17:36:49.643Z,1.77
2022-09-23T17:39:18.769Z,1.83
2022-09-23T17:41:47.251Z,1.30
2022-09-23T17:44:17.683Z,1.57
2022-09-23T17:46:47.187Z,1.73
2022-09-23T17:49:15.767Z,1.33
2022-09-23T17:51:44.653Z,1.70
2022-09-23T17:54:15.302Z,1.77
2022-09-23T17:56:43.796Z,2.27
2022-09-23T17:59:13.154Z,1.63
2022-09-23T18:01:41.896Z,1.77
2022-09-23T18:04:13.303Z,1.50
2022-09-23T18:06:41.782Z,1.53
2022-09-23T18:09:10.458Z,1.70
2022-09-23T18:11:42.195Z,1.80
2022-09-23T18:14:15.374Z,1.77
2022-09-23T18:16:45.854Z,2.20
2022-09-23T18:19:15.683Z,1.80
2022-09-23T18:21:46.716Z,2.13
2022-09-23T18:27:06.634Z,2.20
2022-09-23T18:29:36.138Z,1.90
2022-09-23T18:32:05.113Z,1.97
2022-09-23T18:34:33.513Z,2.53
2022-09-23T18:37:01.910Z,2.37
2022-09-23T18:39:30.318Z,2.30
2022-09-23T18:41:58.707Z,1.83
2022-09-23T18:44:28.558Z,2.10
2022-09-23T18:46:57.065Z,1.57
2022-09-23T18:49:42.969Z,2.30
2022-09-23T18:52:11.703Z,2.50
2022-09-23T18:54:40.100Z,2.37
2022-09-23T18:57:08.570Z,2.27
2022-09-23T18:59:38.461Z,2.30
2022-09-23T19:02:07.497Z,2.00
2022-09-23T19:04:36.117Z,2.00
2022-09-23T19:07:05.649Z,2.13
2022-09-23T19:09:34.028Z,1.93
2022-09-23T19:12:03.345Z,1.90
2022-09-23T19:14:31.703Z,2.30
2022-09-23T19:17:01.432Z,1.77
2022-09-23T19:19:30.170Z,2.10
2022-09-23T19:21:58.707Z,2.50
2022-09-23T19:24:28.203Z,1.97
2022-09-23T19:26:56.661Z,2.33
2022-09-23T19:29:24.987Z,2.27
2022-09-23T19:31:53.316Z,2.33
2022-09-23T19:34:25.973Z,1.87
2022-09-23T19:36:57.349Z,1.80
2022-09-23T19:39:28.367Z,1.67
2022-09-23T19:41:57.174Z,2.13
2022-09-23T19:44:26.980Z,1.83
2022-09-23T19:46:57.468Z,2.80
2022-09-23T19:49:28.139Z,2.20
2022-09-23T19:51:56.950Z,1.93
2022-09-23T19:54:27.341Z,2.27
2022-09-23T19:56:56.407Z,2.30
2022-09-23T19:59:26.388Z,2.67
2022-09-23T20:01:55.299Z,2.20
2022-09-23T20:04:23.764Z,2.43
2022-09-23T20:06:53.605Z,2.30
2022-09-23T20:09:22.064Z,2.53
2022-09-23T20:11:51.008Z,2.30
2022-09-23T20:14:19.409Z,2.23
2022-09-23T20:16:48.077Z,2.37
2022-09-23T20:19:16.400Z,2.30
2022-09-23T20:21:44.753Z,2.20
2022-09-23T20:24:14.407Z,2.43
2022-09-23T20:27:00.030Z,2.40
2022-09-23T20:29:28.830Z,2.60
2022-09-23T20:31:59.178Z,2.40
2022-09-23T20:34:29.753Z,2.77
2022-09-23T20:36:59.271Z,2.10
2022-09-23T20:39:29.185Z,3.00
2022-09-23T20:41:57.605Z,2.40
2022-09-23T20:44:25.975Z,2.70
2022-09-23T20:46:54.250Z,2.70
2022-09-23T20:49:22.731Z,2.60
2022-09-23T20:51:51.340Z,2.50
2022-09-23T20:54:20.035Z,2.60
2022-09-23T20:56:49.736Z,2.40
2022-09-23T20:59:18.328Z,2.43
2022-09-23T21:01:47.619Z,2.43
2022-09-23T21:04:16.498Z,2.70
2022-09-23T21:06:44.813Z,2.70
2022-09-23T21:09:13.141Z,2.77
2022-09-23T21:11:41.427Z,3.03
2022-09-23T21:14:11.369Z,2.40
2022-09-23T21:16:39.805Z,2.40
2022-09-23T21:19:08.553Z,2.60
2022-09-23T21:21:36.893Z,2.47
2022-09-23T21:24:33.065Z,2.90
2022-09-23T21:26:53.606Z,2.40
2022-09-23T21:29:23.348Z,11.83
2022-09-23T21:31:51.683Z,3.87
2022-09-23T21:34:20.036Z,3.70
2022-09-23T21:36:49.330Z,3.07
2022-09-23T21:39:17.630Z,2.90
2022-09-23T21:41:45.946Z,3.17
2022-09-23T21:44:14.484Z,2.80
2022-09-23T21:46:44.472Z,2.50
2022-09-23T21:49:13.284Z,2.60
2022-09-23T21:51:42.434Z,2.73
2022-09-23T21:54:14.373Z,2.70
2022-09-23T21:56:43.829Z,2.87
2022-09-23T21:59:12.335Z,2.87
2022-09-23T22:01:45.066Z,2.60
2022-09-23T22:04:17.425Z,2.93
2022-09-23T22:06:46.853Z,3.00
2022-09-23T22:09:17.975Z,2.77
2022-09-23T22:12:04.659Z,2.97
2022-09-23T22:14:33.039Z,3.17
2022-09-23T22:17:04.506Z,3.27
2022-09-23T22:19:35.122Z,2.83
2022-09-23T22:22:07.827Z,2.80
2022-09-23T22:24:36.201Z,3.00
2022-09-23T22:27:04.720Z,3.07
2022-09-23T22:29:50.232Z,3.27
2022-09-23T22:32:37.982Z,2.97
2022-09-23T22:35:07.274Z,2.93
2022-09-23T22:37:36.797Z,2.40
2022-09-23T22:40:06.687Z,3.10
2022-09-23T22:42:36.293Z,3.10
2022-09-23T22:45:05.750Z,2.90
2022-09-23T22:47:37.790Z,3.23
2022-09-23T22:50:06.760Z,2.70
2022-09-23T22:52:35.672Z,3.00
2022-09-23T22:55:04.475Z,2.57
2022-09-23T22:57:32.812Z,2.93
2022-09-23T23:00:01.118Z,2.30
2022-09-23T23:02:29.650Z,2.50
2022-09-23T23:05:00.980Z,2.20
2022-09-23T23:07:29.344Z,2.83
2022-09-23T23:09:58.180Z,2.80
2022-09-23T23:12:26.658Z,3.57
2022-09-23T23:14:54.886Z,2.83
2022-09-23T23:17:23.185Z,2.60
2022-09-23T23:19:51.557Z,2.67
2022-09-23T23:22:21.256Z,2.80
2022-09-23T23:24:49.712Z,3.00
2022-09-23T23:27:18.065Z,3.30
2022-09-23T23:29:46.322Z,2.83
2022-09-23T23:32:15.385Z,2.40
2022-09-23T23:34:43.875Z,2.70
2022-09-23T23:37:12.207Z,2.60
2022-09-23T23:39:41.896Z,2.83
2022-09-23T23:42:10.205Z,3.63
2022-09-23T23:44:38.464Z,2.87
2022-09-23T23:47:06.878Z,3.20
2022-09-23T23:49:35.278Z,3.50
2022-09-23T23:52:03.665Z,3.60
2022-09-23T23:54:32.979Z,2.40
2022-09-23T23:57:02.715Z,2.93
2022-09-23T23:59:31.045Z,2.70
